createdAt,value
2019-04-23T00:00:26.703Z,14.76
2019-04-23T00:05:41.909Z,14.71
2019-04-23T00:08:17.516Z,14.71
2019-04-23T00:13:12.448Z,14.55
2019-04-23T00:15:49.576Z,14.55
2019-04-23T00:18:12.467Z,14.59
2019-04-23T00:20:43.141Z,14.62
2019-04-23T00:23:10.676Z,14.57
2019-04-23T00:26:02.043Z,14.52
2019-04-23T00:28:35.925Z,14.39
2019-04-23T00:31:06.319Z,14.44
2019-04-23T00:33:32.737Z,14.42
2019-04-23T00:35:55.149Z,14.36
2019-04-23T00:38:36.558Z,14.27
2019-04-23T00:40:58.232Z,14.29
2019-04-23T00:43:28.899Z,14.29
2019-04-23T00:48:45.413Z,14.27
2019-04-23T00:53:23.507Z,14.23
2019-04-23T00:56:03.882Z,14.19
2019-04-23T00:58:31.908Z,14.17
2019-04-23T01:00:54.022Z,14.19
2019-04-23T01:03:17.480Z,14.05
2019-04-23T01:05:48.890Z,13.93
2019-04-23T01:08:18.496Z,13.83
2019-04-23T01:11:03.289Z,13.86
2019-04-23T01:13:36.306Z,13.86
2019-04-23T01:18:49.129Z,13.68
2019-04-23T01:20:54.162Z,13.62
2019-04-23T01:23:42.612Z,13.59
2019-04-23T01:26:26.803Z,13.57
2019-04-23T01:29:01.403Z,13.57
2019-04-23T01:31:29.335Z,13.59
2019-04-23T01:33:59.434Z,13.54
2019-04-23T01:36:25.272Z,13.59
2019-04-23T01:39:00.406Z,13.57
2019-04-23T01:41:31.187Z,13.49
2019-04-23T01:43:50.327Z,13.54
2019-04-23T01:46:28.940Z,13.56
2019-04-23T01:48:52.068Z,13.59
2019-04-23T01:51:27.804Z,13.51
2019-04-23T01:53:50.042Z,13.48
2019-04-23T01:58:51.857Z,13.42
2019-04-23T02:01:20.806Z,13.33
2019-04-23T02:08:47.088Z,13.39
2019-04-23T02:11:14.086Z,13.37
2019-04-23T02:13:51.574Z,13.43
2019-04-23T02:16:10.578Z,13.40
2019-04-23T02:18:41.654Z,13.36
2019-04-23T02:21:15.447Z,13.34
2019-04-23T02:23:54.763Z,13.21
2019-04-23T02:26:38.476Z,13.13
2019-04-23T02:31:45.114Z,12.95
2019-04-23T02:34:00.488Z,13.00
2019-04-23T02:36:26.392Z,13.07
2019-04-23T02:38:58.123Z,13.02
2019-04-23T02:41:26.731Z,13.08
2019-04-23T02:43:59.118Z,13.08
2019-04-23T02:46:31.790Z,13.13
2019-04-23T02:51:29.038Z,12.85
2019-04-23T02:56:33.046Z,12.22
2019-04-23T02:58:54.490Z,12.20
2019-04-23T03:06:14.841Z,12.36
2019-04-23T03:08:46.278Z,12.34
2019-04-23T03:11:24.980Z,12.34
2019-04-23T03:14:00.304Z,12.34
2019-04-23T03:19:31.976Z,12.28
2019-04-23T03:22:09.906Z,12.16
2019-04-23T03:25:21.327Z,12.15
2019-04-23T03:30:16.339Z,12.19
2019-04-23T03:33:08.299Z,12.21
2019-04-23T03:47:37.286Z,12.02
2019-04-23T04:05:03.481Z,11.45
2019-04-23T04:07:43.839Z,11.47
2019-04-23T04:09:59.630Z,11.46
2019-04-23T04:15:04.288Z,11.33
2019-04-23T04:25:21.318Z,11.46
2019-04-23T04:27:38.424Z,11.58
2019-04-23T04:30:01.167Z,11.52
2019-04-23T04:32:33.427Z,11.68
2019-04-23T04:42:14.833Z,11.74
2019-04-23T04:45:07.472Z,11.69
2019-04-23T04:47:28.045Z,11.69
2019-04-23T04:49:55.778Z,11.79
2019-04-23T04:52:34.898Z,11.83
2019-04-23T04:55:00.123Z,11.86
2019-04-23T05:00:06.735Z,11.98
2019-04-23T05:02:28.336Z,11.98
2019-04-23T05:07:20.137Z,11.94
2019-04-23T05:10:01.701Z,12.04
2019-04-23T05:14:52.743Z,11.98
2019-04-23T05:17:32.350Z,11.87
2019-04-23T05:19:57.460Z,12.08
2019-04-23T05:22:22.579Z,12.00
2019-04-23T05:24:45.239Z,12.02
2019-04-23T05:27:21.800Z,12.11
2019-04-23T05:29:54.332Z,12.23
2019-04-23T05:32:25.128Z,12.44
2019-04-23T05:34:50.437Z,12.39
2019-04-23T05:37:25.403Z,12.38
2019-04-23T05:39:49.884Z,12.25
2019-04-23T05:42:19.773Z,12.64
2019-04-23T05:44:43.299Z,12.53
2019-04-23T05:47:17.439Z,12.32
2019-04-23T05:49:47.444Z,12.47
2019-04-23T05:52:17.911Z,12.40
2019-04-23T05:54:44.700Z,12.56
2019-04-23T05:57:06.635Z,12.77
2019-04-23T05:59:34.244Z,12.89
2019-04-23T06:02:07.598Z,13.47
2019-04-23T06:04:38.249Z,13.23
2019-04-23T06:07:25.030Z,13.34
2019-04-23T06:09:33.575Z,13.42
2019-04-23T06:12:16.887Z,13.38
2019-04-23T06:14:32.743Z,13.45
2019-04-23T06:17:15.929Z,13.51
2019-04-23T06:19:48.332Z,13.47
2019-04-23T06:22:25.269Z,13.50
2019-04-23T06:24:45.042Z,13.84
2019-04-23T06:27:22.054Z,14.03
2019-04-23T06:29:43.222Z,14.31
2019-04-23T06:32:15.929Z,14.25
2019-04-23T06:34:50.211Z,14.60
2019-04-23T06:37:24.720Z,14.59
2019-04-23T06:42:14.580Z,14.70
2019-04-23T06:44:51.776Z,14.57
2019-04-23T06:47:12.934Z,14.97
2019-04-23T06:52:20.601Z,15.24
2019-04-23T06:54:47.670Z,15.48
2019-04-23T06:57:20.761Z,15.49
2019-04-23T06:59:47.100Z,15.78
2019-04-23T07:02:22.271Z,15.80
2019-04-23T07:07:41.029Z,15.73
2019-04-23T07:09:43.884Z,16.07
2019-04-23T07:12:16.624Z,16.12
2019-04-23T07:17:08.880Z,16.13
2019-04-23T07:19:42.478Z,15.95
2019-04-23T07:25:03.262Z,15.66
2019-04-23T07:27:14.879Z,15.75
2019-04-23T07:29:40.475Z,15.75
2019-04-23T07:32:11.950Z,16.09
2019-04-23T07:34:49.518Z,16.34
2019-04-23T07:37:15.477Z,16.48
2019-04-23T07:40:24.445Z,16.79
2019-04-23T07:42:38.779Z,16.71
2019-04-23T07:48:10.960Z,17.04
2019-04-23T07:50:51.123Z,17.38
2019-04-23T07:53:12.896Z,17.46
2019-04-23T07:58:14.308Z,18.19
2019-04-23T08:03:19.076Z,18.49
2019-04-23T08:05:42.452Z,18.98
2019-04-23T08:08:07.291Z,19.14
2019-04-23T08:10:35.718Z,19.23
2019-04-23T08:13:16.123Z,19.93
2019-04-23T08:15:42.977Z,20.01
2019-04-23T08:18:13.648Z,19.85
2019-04-23T08:20:42.214Z,19.80
2019-04-23T08:23:40.464Z,20.19
2019-04-23T08:29:06.480Z,19.65
2019-04-23T08:31:32.048Z,19.77
2019-04-23T08:34:09.169Z,19.90
2019-04-23T08:36:34.242Z,20.56
2019-04-23T08:38:57.043Z,20.78
2019-04-23T08:41:44.624Z,21.44
2019-04-23T08:44:09.172Z,22.00
2019-04-23T08:46:56.836Z,21.55
2019-04-23T08:49:41.988Z,21.02
2019-04-23T08:57:14.449Z,21.00
2019-04-23T08:59:38.841Z,21.14
2019-04-23T09:02:18.174Z,21.07
2019-04-23T09:04:31.230Z,21.37
2019-04-23T09:07:09.624Z,21.75
2019-04-23T09:12:07.017Z,21.65
2019-04-23T09:14:38.619Z,21.54
2019-04-23T09:17:11.149Z,21.58
2019-04-23T09:20:03.689Z,22.06
2019-04-23T09:22:14.572Z,22.17
2019-04-23T09:24:41.525Z,22.51
2019-04-23T09:27:18.036Z,22.40
2019-04-23T09:29:45.781Z,21.93
2019-04-23T09:35:20.982Z,21.96
2019-04-23T09:38:21.804Z,22.13
2019-04-23T09:41:06.942Z,22.14
2019-04-23T09:43:38.200Z,22.41
2019-04-23T09:46:36.008Z,22.78
2019-04-23T09:49:18.801Z,23.04
2019-04-23T09:51:38.551Z,22.71
2019-04-23T09:54:09.556Z,23.19
2019-04-23T09:56:44.624Z,23.37
2019-04-23T09:59:17.677Z,23.42
2019-04-23T10:01:40.928Z,24.60
2019-04-23T10:04:00.113Z,25.42
2019-04-23T10:06:23.308Z,24.91
2019-04-23T10:08:53.824Z,24.07
2019-04-23T10:11:18.179Z,24.56
2019-04-23T10:13:46.397Z,24.51
2019-04-23T10:16:17.154Z,24.48
2019-04-23T10:18:44.883Z,24.22
2019-04-23T10:21:13.119Z,24.13
2019-04-23T10:23:41.221Z,25.07
2019-04-23T10:26:09.981Z,25.29
2019-04-23T10:28:42.214Z,26.33
2019-04-23T10:31:12.733Z,25.54
2019-04-23T10:33:46.116Z,25.51
2019-04-23T10:36:19.059Z,26.81
2019-04-23T10:38:54.036Z,28.01
2019-04-23T10:41:22.320Z,28.50
2019-04-23T10:44:05.035Z,28.05
2019-04-23T10:47:12.203Z,28.12
2019-04-23T10:50:07.398Z,27.53
2019-04-23T10:52:32.110Z,28.01
2019-04-23T10:55:06.764Z,28.34
2019-04-23T10:57:31.206Z,28.31
2019-04-23T10:59:58.553Z,28.12
2019-04-23T11:02:51.760Z,27.12
2019-04-23T11:05:29.053Z,27.47
2019-04-23T11:08:02.300Z,28.45
2019-04-23T11:10:32.862Z,28.61
2019-04-23T11:13:21.616Z,28.64
2019-04-23T11:16:27.433Z,28.77
2019-04-23T11:18:02.860Z,29.45
2019-04-23T11:20:43.791Z,28.89
2019-04-23T11:23:04.860Z,26.85
2019-04-23T11:28:17.987Z,29.47
2019-04-23T11:31:04.445Z,28.75
2019-04-23T11:33:22.079Z,29.68
2019-04-23T11:36:04.184Z,29.03
2019-04-23T11:38:48.617Z,29.43
2019-04-23T11:40:41.960Z,31.22
2019-04-23T11:43:20.305Z,32.05
2019-04-23T11:51:26.301Z,33.78
2019-04-23T11:53:36.997Z,34.43
2019-04-23T11:56:09.004Z,33.65
2019-04-23T12:04:24.804Z,32.07
2019-04-23T12:07:06.230Z,33.02
2019-04-23T12:09:41.554Z,33.86
2019-04-23T12:12:02.356Z,34.81
2019-04-23T12:15:11.709Z,34.44
2019-04-23T12:22:28.456Z,37.32
2019-04-23T12:27:27.578Z,33.64
2019-04-23T12:29:52.745Z,33.89
2019-04-23T12:35:35.203Z,34.39
2019-04-23T12:38:06.976Z,35.48
2019-04-23T12:43:12.718Z,36.33
2019-04-23T12:53:20.602Z,33.01
2019-04-23T12:56:04.546Z,31.85
2019-04-23T12:58:33.939Z,31.37
2019-04-23T13:00:58.443Z,30.21
2019-04-23T13:05:47.738Z,29.35
2019-04-23T13:08:36.126Z,29.62
2019-04-23T13:10:52.798Z,29.30
2019-04-23T13:15:53.248Z,28.69
2019-04-23T13:18:26.820Z,28.49
2019-04-23T13:20:47.939Z,28.48
2019-04-23T13:23:22.131Z,28.47
2019-04-23T13:28:30.976Z,28.72
2019-04-23T13:30:59.075Z,28.60
2019-04-23T13:33:35.252Z,29.08
2019-04-23T13:36:01.686Z,29.42
2019-04-23T13:38:32.133Z,30.04
2019-04-23T13:41:04.651Z,29.37
2019-04-23T13:43:38.054Z,29.41
2019-04-23T13:48:23.198Z,28.75
2019-04-23T13:50:59.453Z,28.87
2019-04-23T13:55:54.698Z,30.50
2019-04-23T13:58:34.488Z,30.71
2019-04-23T14:01:14.003Z,32.07
2019-04-23T14:03:41.250Z,31.48
2019-04-23T14:06:22.959Z,31.79
2019-04-23T14:08:50.443Z,32.04
2019-04-23T14:16:11.660Z,32.05
2019-04-23T14:18:51.551Z,31.83
2019-04-23T14:21:15.972Z,31.90
2019-04-23T14:33:52.644Z,31.18
2019-04-23T14:36:15.046Z,31.29
2019-04-23T14:38:44.490Z,30.75
2019-04-23T14:41:21.376Z,30.94
2019-04-23T14:43:48.737Z,32.14
2019-04-23T14:51:22.903Z,30.92
2019-04-23T14:53:46.337Z,30.32
2019-04-23T14:56:20.160Z,29.93
2019-04-23T15:03:50.532Z,28.76
2019-04-23T15:06:27.822Z,28.86
2019-04-23T15:11:34.623Z,28.88
2019-04-23T15:13:51.948Z,28.60
2019-04-23T15:19:12.366Z,27.37
2019-04-23T15:21:51.684Z,27.50
2019-04-23T15:28:37.272Z,27.18
2019-04-23T15:31:26.851Z,26.88
2019-04-23T15:34:00.935Z,26.67
2019-04-23T15:39:07.945Z,27.14
2019-04-23T15:43:57.758Z,26.88
2019-04-23T15:46:25.303Z,26.89
2019-04-23T15:49:01.279Z,26.64
2019-04-23T15:51:28.306Z,26.64
2019-04-23T15:53:51.003Z,26.75
2019-04-23T15:56:35.818Z,26.89
2019-04-23T16:01:29.383Z,27.17
2019-04-23T16:03:29.399Z,27.31
2019-04-23T16:05:57.440Z,26.90
2019-04-23T16:14:10.868Z,26.62
2019-04-23T16:16:31.483Z,26.70
2019-04-23T16:19:07.989Z,26.60
2019-04-23T16:21:48.361Z,26.49
2019-04-23T16:24:05.968Z,26.39
2019-04-23T16:26:40.564Z,26.70
2019-04-23T16:29:25.478Z,26.87
2019-04-23T16:31:41.384Z,26.94
2019-04-23T16:36:59.499Z,27.06
2019-04-23T16:39:48.828Z,26.34
2019-04-23T16:42:08.828Z,25.95
2019-04-23T16:44:38.284Z,25.94
2019-04-23T16:47:04.654Z,25.95
2019-04-23T16:52:01.323Z,25.58
2019-04-23T16:54:50.988Z,24.11
2019-04-23T16:59:24.716Z,23.06
2019-04-23T17:02:12.328Z,23.15
2019-04-23T17:04:32.704Z,22.99
2019-04-23T17:06:57.830Z,23.14
2019-04-23T17:09:26.376Z,23.14
2019-04-23T17:12:04.611Z,23.25
2019-04-23T17:14:23.197Z,23.25
2019-04-23T17:16:56.948Z,23.32
2019-04-23T17:19:33.305Z,23.07
2019-04-23T17:21:59.984Z,22.92
2019-04-23T17:24:40.478Z,22.69
2019-04-23T17:27:03.664Z,22.78
2019-04-23T17:29:28.281Z,22.88
2019-04-23T17:32:05.790Z,23.00
2019-04-23T17:37:21.698Z,22.67
2019-04-23T17:40:19.850Z,22.67
2019-04-23T17:43:06.507Z,22.70
2019-04-23T17:45:42.367Z,22.75
2019-04-23T17:48:15.747Z,23.13
2019-04-23T17:53:22.327Z,23.21
2019-04-23T17:58:37.228Z,23.38
2019-04-23T18:04:02.261Z,22.92
2019-04-23T18:06:37.909Z,22.85
2019-04-23T18:09:07.696Z,22.89
2019-04-23T18:11:29.894Z,22.53
2019-04-23T18:22:04.996Z,21.94
2019-04-23T18:24:42.831Z,21.52
2019-04-23T18:27:40.618Z,21.86
2019-04-23T18:30:15.735Z,22.05
2019-04-23T18:33:44.307Z,21.93
2019-04-23T18:44:15.489Z,21.11
2019-04-23T18:49:09.452Z,21.08
2019-04-23T18:51:40.517Z,21.07
2019-04-23T18:54:05.485Z,21.11
2019-04-23T18:57:03.351Z,21.15
2019-04-23T18:59:31.286Z,20.90
2019-04-23T19:11:11.103Z,20.67
2019-04-23T19:13:39.884Z,20.37
2019-04-23T19:15:59.769Z,19.98
2019-04-23T19:18:40.476Z,19.83
2019-04-23T19:21:20.779Z,19.97
2019-04-23T19:23:47.236Z,19.68
2019-04-23T19:26:02.578Z,19.47
2019-04-23T19:31:25.177Z,19.43
2019-04-23T19:34:22.742Z,19.26
2019-04-23T19:36:49.236Z,19.35
2019-04-23T19:39:11.915Z,19.26
2019-04-23T19:41:52.491Z,19.41
2019-04-23T19:44:08.969Z,19.27
2019-04-23T19:49:09.832Z,18.77
2019-04-23T19:51:42.776Z,18.83
2019-04-23T19:54:22.027Z,18.92
2019-04-23T19:56:44.810Z,18.89
2019-04-23T19:59:15.363Z,18.84
2019-04-23T20:01:41.615Z,18.91
2019-04-23T20:04:04.454Z,18.75
2019-04-23T20:07:12.585Z,18.30
2019-04-23T20:09:30.764Z,17.99
2019-04-23T20:11:52.782Z,17.92
2019-04-23T20:17:04.418Z,17.73
2019-04-23T20:19:37.705Z,17.79
2019-04-23T20:22:00.099Z,17.82
2019-04-23T20:27:09.263Z,17.91
2019-04-23T20:30:15.832Z,18.01
2019-04-23T20:37:42.321Z,18.11
2019-04-23T20:42:44.552Z,17.94
2019-04-23T20:44:59.101Z,17.92
2019-04-23T20:47:24.468Z,17.87
2019-04-23T20:49:56.805Z,17.76
2019-04-23T20:52:20.427Z,17.66
2019-04-23T20:55:02.040Z,17.58
2019-04-23T20:58:02.429Z,17.58
2019-04-23T21:00:30.410Z,17.55
2019-04-23T21:05:22.800Z,17.50
2019-04-23T21:15:37.509Z,16.18
2019-04-23T21:18:06.220Z,15.93
2019-04-23T21:20:49.502Z,15.89
2019-04-23T21:23:12.502Z,15.97
2019-04-23T21:28:18.080Z,15.65
2019-04-23T21:31:18.943Z,15.36
2019-04-23T21:33:43.530Z,15.22
2019-04-23T21:36:38.809Z,15.15
2019-04-23T21:39:23.058Z,15.18
2019-04-23T21:41:56.781Z,15.34
2019-04-23T21:44:18.416Z,15.62
2019-04-23T21:46:55.343Z,15.90
2019-04-23T21:51:49.286Z,16.48
2019-04-23T21:54:17.394Z,16.22
2019-04-23T21:56:48.220Z,15.80
2019-04-23T22:01:54.145Z,15.26
2019-04-23T22:04:39.509Z,15.15
2019-04-23T22:09:22.629Z,15.43
2019-04-23T22:14:17.472Z,15.13
2019-04-23T22:19:27.610Z,15.22
2019-04-23T22:21:50.836Z,15.09
2019-04-23T22:24:12.321Z,15.11
2019-04-23T22:29:18.404Z,15.45
2019-04-23T22:34:22.225Z,16.01
2019-04-23T22:37:01.762Z,16.28
2019-04-23T22:39:17.695Z,16.48
2019-04-23T22:41:59.780Z,16.59
2019-04-23T22:44:20.602Z,16.84
2019-04-23T22:52:06.284Z,16.94
2019-04-23T22:54:35.933Z,16.68
2019-04-23T23:04:51.574Z,15.22
2019-04-23T23:07:07.687Z,15.25
2019-04-23T23:09:54.161Z,15.46
2019-04-23T23:12:14.560Z,15.39
2019-04-23T23:14:47.481Z,15.24
2019-04-23T23:24:43.172Z,16.22
2019-04-23T23:29:42.201Z,16.30
2019-04-23T23:32:11.114Z,16.27
2019-04-23T23:34:58.518Z,16.31
2019-04-23T23:39:35.572Z,16.48
2019-04-23T23:44:43.486Z,16.68
2019-04-23T23:47:07.282Z,16.83
2019-04-23T23:49:38.661Z,16.90
2019-04-23T23:52:19.480Z,16.98
2019-04-23T23:54:25.203Z,17.04
2019-04-23T23:57:13.741Z,16.97
